createdAt,value
2018-11-22T12:16:35.192Z,100186.76
2018-11-22T12:19:10.123Z,100187.92
2018-11-22T12:21:41.043Z,100186.93
2018-11-22T12:24:17.295Z,100194.60
2018-11-22T12:26:53.708Z,100181.77
2018-11-22T12:29:37.225Z,100185.41
2018-11-22T12:32:19.518Z,100186.02
2018-11-22T12:34:58.388Z,100190.42
2018-11-22T12:37:44.705Z,100191.11
2018-11-22T12:40:21.611Z,100191.42
2018-11-22T12:42:54.220Z,100172.33
2018-11-22T12:45:54.946Z,100188.75
2018-11-22T12:48:29.551Z,100192.08
2018-11-22T12:51:12.475Z,100185.73
2018-11-22T12:53:45.024Z,100194.67
2018-11-22T12:56:27.200Z,100182.18
2018-11-22T12:59:04.083Z,100186.48
2018-11-22T13:01:39.158Z,100181.90
2018-11-22T13:04:19.445Z,100184.41
2018-11-22T13:06:52.844Z,100179.59
2018-11-22T13:09:24.303Z,100179.73
2018-11-22T13:11:57.018Z,100183.77
2018-11-22T13:14:31.220Z,100188.59
2018-11-22T13:17:07.803Z,100190.09
2018-11-22T13:19:41.097Z,100188.41
2018-11-22T13:22:12.639Z,100182.08
2018-11-22T13:24:45.812Z,100194.92
2018-11-22T13:27:17.942Z,100196.11
2018-11-22T13:29:51.011Z,100176.23
2018-11-22T13:32:23.883Z,100175.72
2018-11-22T13:35:01.670Z,100182.75
2018-11-22T13:37:42.497Z,100182.75
2018-11-22T13:40:25.578Z,100180.73
2018-11-22T13:43:00.043Z,100191.73
2018-11-22T13:45:41.271Z,100186.92
2018-11-22T13:48:18.710Z,100185.41
2018-11-22T13:50:54.817Z,100188.11
2018-11-22T13:53:25.218Z,100189.25
2018-11-22T13:56:09.175Z,100180.73
2018-11-22T13:58:55.274Z,100180.40
2018-11-22T14:01:26.263Z,100181.39
2018-11-22T14:04:00.839Z,100184.74
2018-11-22T14:06:36.209Z,100185.22
2018-11-22T14:09:13.533Z,100181.91
2018-11-22T14:11:54.413Z,100176.39
2018-11-22T14:14:32.183Z,100180.40
2018-11-22T14:17:10.703Z,100177.43
2018-11-22T14:19:49.366Z,100180.59
2018-11-22T14:22:26.744Z,100176.75
2018-11-22T14:27:50.466Z,100180.41
2018-11-22T14:30:34.210Z,100177.75
2018-11-22T14:33:15.669Z,100178.25
2018-11-22T14:35:50.275Z,100180.05
2018-11-22T14:38:28.173Z,100183.00
2018-11-22T14:41:07.062Z,100190.99
2018-11-22T14:43:43.839Z,100194.66
2018-11-22T14:46:18.856Z,100185.34
2018-11-22T14:48:57.004Z,100179.84
2018-11-22T14:51:43.177Z,100158.21
2018-11-22T14:54:23.757Z,100187.25
2018-11-22T14:56:58.871Z,100189.34
2018-11-22T14:59:40.086Z,100195.05
2018-11-22T15:02:17.577Z,100191.40
2018-11-22T15:04:53.095Z,100187.02
2018-11-22T15:07:28.792Z,100188.85
2018-11-22T15:10:05.166Z,100190.67
2018-11-22T15:12:45.345Z,100191.20
2018-11-22T15:15:26.954Z,100183.84
2018-11-22T15:18:12.558Z,100187.77
2018-11-22T15:21:00.867Z,100190.95
2018-11-22T15:23:31.969Z,100197.72
2018-11-22T15:26:07.550Z,100195.05
2018-11-22T15:28:39.793Z,100193.61
2018-11-22T15:31:17.075Z,100193.86
2018-11-22T15:33:55.457Z,100199.53
2018-11-22T15:36:29.806Z,100192.81
2018-11-22T15:39:11.518Z,100195.53
2018-11-22T15:41:46.073Z,100205.68
2018-11-22T15:44:20.347Z,100206.98
2018-11-22T15:46:56.178Z,100206.98
2018-11-22T15:49:31.151Z,100207.52
2018-11-22T15:52:04.903Z,100211.51
2018-11-22T15:54:40.938Z,100213.02
2018-11-22T15:57:15.635Z,100216.05
2018-11-22T15:59:49.843Z,100216.66
2018-11-22T16:02:26.284Z,100215.52
2018-11-22T16:05:02.299Z,100230.25
2018-11-22T16:07:37.130Z,100218.76
2018-11-22T16:10:15.337Z,100222.39
2018-11-22T16:12:55.152Z,100220.71
2018-11-22T16:15:44.036Z,100217.81
2018-11-22T16:18:19.659Z,100221.57
2018-11-22T16:20:53.534Z,100221.99
2018-11-22T16:23:25.133Z,100224.53
2018-11-22T16:26:01.916Z,100228.02
2018-11-22T16:28:39.235Z,100227.30
2018-11-22T16:31:22.259Z,100228.93
2018-11-22T16:34:01.627Z,100234.80
2018-11-22T16:36:45.613Z,100233.39
2018-11-22T16:39:20.538Z,100233.28
2018-11-22T16:41:57.562Z,100235.66
2018-11-22T16:44:35.824Z,100239.37
2018-11-22T16:49:55.844Z,100235.67
2018-11-22T16:52:40.383Z,100237.35
2018-11-22T16:55:18.754Z,100246.66
2018-11-22T16:57:55.622Z,100238.55
2018-11-22T17:00:38.273Z,100238.34
2018-11-22T17:03:20.529Z,100242.03
2018-11-22T17:06:01.164Z,100232.50
2018-11-22T17:08:40.403Z,100242.92
2018-11-22T17:11:22.500Z,100234.39
2018-11-22T17:14:03.335Z,100231.67
2018-11-22T17:16:42.262Z,100233.64
2018-11-22T17:19:25.893Z,100235.25
2018-11-22T17:22:04.105Z,100237.67
2018-11-22T17:24:41.099Z,100232.28
2018-11-22T17:27:18.301Z,100235.62
2018-11-22T17:29:55.714Z,100236.55
2018-11-22T17:32:28.972Z,100238.84
2018-11-22T17:35:14.644Z,100240.41
2018-11-22T17:37:51.116Z,100239.28
2018-11-22T17:40:30.937Z,100239.56
2018-11-22T17:43:08.061Z,100234.13
2018-11-22T17:45:45.535Z,100232.23
2018-11-22T17:48:23.541Z,100239.30
2018-11-22T17:51:07.897Z,100234.88
2018-11-22T17:53:41.484Z,100241.52
2018-11-22T17:56:23.343Z,100245.14
2018-11-22T17:58:58.941Z,100240.59
2018-11-22T18:01:37.374Z,100231.88
2018-11-22T18:04:18.315Z,100230.70
2018-11-22T18:07:00.821Z,100235.36
2018-11-22T18:09:42.548Z,100234.12
2018-11-22T18:12:20.268Z,100232.02
2018-11-22T18:15:06.007Z,100236.97
2018-11-22T18:23:11.637Z,100251.48
2018-11-22T18:25:48.994Z,100246.69
2018-11-22T18:28:27.133Z,100242.92
2018-11-22T18:31:06.876Z,100239.38
2018-11-22T18:33:45.231Z,100243.62
2018-11-22T18:36:22.569Z,100245.06
2018-11-22T18:39:01.678Z,100243.73
2018-11-22T18:41:36.593Z,100250.87
2018-11-22T18:44:13.418Z,100245.48
2018-11-22T18:46:47.064Z,100241.77
2018-11-22T18:49:18.748Z,100245.84
2018-11-22T18:51:55.502Z,100249.09
2018-11-22T18:57:12.786Z,100252.89
2018-11-22T18:59:46.695Z,100254.27
2018-11-22T19:02:20.383Z,100246.17
2018-11-22T19:04:54.813Z,100248.08
2018-11-22T19:07:30.108Z,100245.21
2018-11-22T19:10:12.451Z,100248.13
2018-11-22T19:12:58.453Z,100249.45
2018-11-22T19:15:34.265Z,100243.20
2018-11-22T19:18:13.255Z,100252.84
2018-11-22T19:20:54.230Z,100251.03
2018-11-22T19:23:30.895Z,100252.45
2018-11-22T19:26:07.524Z,100244.74
2018-11-22T19:28:43.431Z,100249.77
2018-11-22T19:31:18.877Z,100248.98
2018-11-22T19:33:51.273Z,100251.58
2018-11-22T19:36:25.991Z,100252.69
2018-11-22T19:38:59.392Z,100254.73
2018-11-22T19:41:32.293Z,100237.95
2018-11-22T19:44:06.386Z,100253.02
2018-11-22T19:46:46.172Z,100248.13
2018-11-22T19:49:32.422Z,100255.23
2018-11-22T19:52:05.318Z,100255.02
2018-11-22T19:54:39.023Z,100260.38
2018-11-22T19:57:20.704Z,100268.90
2018-11-22T20:00:00.531Z,100262.44
2018-11-22T20:02:35.813Z,100265.13
2018-11-22T20:05:21.703Z,100259.58
2018-11-22T20:08:04.974Z,100274.99
2018-11-22T20:10:43.230Z,100271.93
2018-11-22T20:13:22.352Z,100264.19
2018-11-22T20:15:54.019Z,100267.31
2018-11-22T20:18:33.008Z,100272.66
2018-11-22T20:21:13.022Z,100283.84
2018-11-22T20:23:51.813Z,100278.70
2018-11-22T20:26:27.227Z,100280.87
2018-11-22T20:29:05.357Z,100261.05
2018-11-22T20:31:43.889Z,100286.48
2018-11-22T20:34:17.014Z,100288.14
2018-11-22T20:36:54.047Z,100278.61
2018-11-22T20:39:27.407Z,100279.93
2018-11-22T20:44:56.744Z,100280.83
2018-11-22T20:47:37.984Z,100256.66
2018-11-22T20:50:23.763Z,100274.16
2018-11-22T20:52:57.893Z,100283.38
2018-11-22T20:55:38.802Z,100277.23
2018-11-22T20:58:12.802Z,100277.86
2018-11-22T21:00:50.760Z,100272.88
2018-11-22T21:03:26.638Z,100283.37
2018-11-22T21:05:58.864Z,100281.71
2018-11-22T21:08:33.257Z,100278.81
2018-11-22T21:14:45.103Z,100267.17
2018-11-22T21:17:22.179Z,100273.27
2018-11-22T21:19:56.906Z,100274.34
2018-11-22T21:22:31.652Z,100271.48
2018-11-22T21:25:05.474Z,100232.67
2018-11-22T21:27:39.604Z,100265.22
2018-11-22T21:30:22.993Z,100271.80
2018-11-22T21:32:59.757Z,100274.42
2018-11-22T21:35:33.796Z,100265.34
2018-11-22T21:38:10.675Z,100237.85
2018-11-22T21:40:44.519Z,100267.73
2018-11-22T21:43:22.401Z,100279.06
2018-11-22T21:45:59.953Z,100275.20
2018-11-22T21:48:32.240Z,100273.66
2018-11-22T21:51:06.494Z,100269.17
2018-11-22T21:53:48.432Z,100269.09
2018-11-22T21:56:27.605Z,100247.26
2018-11-22T22:01:44.228Z,100276.70
2018-11-22T22:04:17.640Z,100275.20
2018-11-22T22:09:18.509Z,100266.23
2018-11-22T22:11:57.308Z,100230.36
2018-11-22T22:14:36.377Z,100253.87
2018-11-22T22:17:19.169Z,100259.06
2018-11-22T22:19:51.623Z,100267.95
2018-11-22T22:22:29.410Z,100261.27
2018-11-22T22:25:05.456Z,100263.30
2018-11-22T22:27:37.963Z,100265.52
2018-11-22T22:30:16.854Z,100262.30
2018-11-22T22:32:51.716Z,100258.03
2018-11-22T22:35:28.461Z,100269.73
2018-11-22T22:38:02.571Z,100268.03
2018-11-22T22:43:19.443Z,100274.28
2018-11-22T22:45:57.357Z,100268.11
2018-11-22T22:48:36.221Z,100267.44
2018-11-22T22:51:14.697Z,100266.77
2018-11-22T22:53:49.894Z,100259.56
2018-11-22T22:56:24.324Z,100255.78
2018-11-22T22:58:58.876Z,100272.19
2018-11-22T23:01:31.895Z,100267.08
2018-11-22T23:04:04.270Z,100246.42
2018-11-22T23:06:40.594Z,100266.05
2018-11-22T23:09:16.985Z,100267.55
2018-11-22T23:11:52.675Z,100160.39
2018-11-22T23:17:14.382Z,100255.34
2018-11-22T23:19:48.790Z,100255.34
2018-11-22T23:22:26.517Z,100254.70
2018-11-22T23:24:59.563Z,100247.77
2018-11-22T23:27:36.098Z,100250.83
2018-11-22T23:30:14.190Z,100246.12
2018-11-22T23:32:52.734Z,100238.68
2018-11-22T23:35:27.765Z,100236.63
2018-11-22T23:38:03.201Z,100242.04
2018-11-22T23:40:38.014Z,100157.14
2018-11-22T23:43:16.319Z,100249.03
2018-11-22T23:45:50.159Z,100239.18
2018-11-22T23:48:26.841Z,100235.42
2018-11-22T23:51:01.297Z,100228.19
2018-11-22T23:53:35.362Z,100231.00
2018-11-22T23:56:09.560Z,100236.66
2018-11-22T23:58:43.816Z,100235.49
